sensor_id;sensor_type;location;lat;lon;timestamp;P1;durP1;ratioP1;P2;durP2;ratioP2
22904;SDS011;11619;50.140;8.518;2024-02-26T00:00:47;1.52;;;1.20;;
22904;SDS011;11619;50.140;8.518;2024-02-26T00:03:13;1.33;;;1.23;;
22904;SDS011;11619;50.140;8.518;2024-02-26T00:05:40;3.10;;;1.17;;
22904;SDS011;11619;50.140;8.518;2024-02-26T00:08:08;1.40;;;1.20;;
22904;SDS011;11619;50.140;8.518;2024-02-26T00:10:35;2.33;;;1.30;;
22904;SDS011;11619;50.140;8.518;2024-02-26T00:13:01;2.22;;;1.30;;
22904;SDS011;11619;50.140;8.518;2024-02-26T00:15:28;1.50;;;1.30;;
22904;SDS011;11619;50.140;8.518;2024-02-26T00:17:54;1.20;;;1.10;;
22904;SDS011;11619;50.140;8.518;2024-02-26T00:20:21;1.45;;;1.35;;
22904;SDS011;11619;50.140;8.518;2024-02-26T00:22:47;3.08;;;1.38;;
22904;SDS011;11619;50.140;8.518;2024-02-26T00:25:14;2.97;;;1.50;;
22904;SDS011;11619;50.140;8.518;2024-02-26T00:27:40;1.33;;;1.10;;
22904;SDS011;11619;50.140;8.518;2024-02-26T00:30:08;1.27;;;1.17;;
22904;SDS011;11619;50.140;8.518;2024-02-26T00:32:35;2.03;;;1.25;;
22904;SDS011;11619;50.140;8.518;2024-02-26T00:35:01;1.40;;;1.30;;
22904;SDS011;11619;50.140;8.518;2024-02-26T00:37:28;1.95;;;1.45;;
22904;SDS011;11619;50.140;8.518;2024-02-26T00:39:55;1.35;;;1.13;;
22904;SDS011;11619;50.140;8.518;2024-02-26T00:42:22;1.50;;;1.40;;
22904;SDS011;11619;50.140;8.518;2024-02-26T00:44:49;1.85;;;1.60;;
22904;SDS011;11619;50.140;8.518;2024-02-26T00:47:15;1.88;;;1.40;;
22904;SDS011;11619;50.140;8.518;2024-02-26T00:49:43;2.22;;;1.60;;
22904;SDS011;11619;50.140;8.518;2024-02-26T00:52:11;2.15;;;1.60;;
22904;SDS011;11619;50.140;8.518;2024-02-26T00:54:37;1.83;;;1.45;;
22904;SDS011;11619;50.140;8.518;2024-02-26T00:57:04;1.80;;;1.30;;
22904;SDS011;11619;50.140;8.518;2024-02-26T00:59:30;3.38;;;1.60;;
22904;SDS011;11619;50.140;8.518;2024-02-26T01:01:58;2.13;;;1.52;;
22904;SDS011;11619;50.140;8.518;2024-02-26T01:04:28;2.47;;;1.40;;
22904;SDS011;11619;50.140;8.518;2024-02-26T01:06:54;1.70;;;1.38;;
22904;SDS011;11619;50.140;8.518;2024-02-26T01:09:21;1.58;;;1.48;;
22904;SDS011;11619;50.140;8.518;2024-02-26T01:11:47;2.80;;;1.67;;
22904;SDS011;11619;50.140;8.518;2024-02-26T01:14:14;1.98;;;1.40;;
22904;SDS011;11619;50.140;8.518;2024-02-26T01:16:41;2.35;;;1.50;;
22904;SDS011;11619;50.140;8.518;2024-02-26T01:19:07;1.42;;;1.33;;
22904;SDS011;11619;50.140;8.518;2024-02-26T01:21:34;2.10;;;1.40;;
22904;SDS011;11619;50.140;8.518;2024-02-26T01:24:00;2.47;;;1.50;;
22904;SDS011;11619;50.140;8.518;2024-02-26T01:26:27;2.00;;;1.48;;
22904;SDS011;11619;50.140;8.518;2024-02-26T01:28:53;2.35;;;1.45;;
22904;SDS011;11619;50.140;8.518;2024-02-26T01:31:21;1.33;;;1.23;;
22904;SDS011;11619;50.140;8.518;2024-02-26T01:33:47;1.50;;;1.33;;
22904;SDS011;11619;50.140;8.518;2024-02-26T01:36:14;1.60;;;1.50;;
22904;SDS011;11619;50.140;8.518;2024-02-26T01:38:41;2.60;;;1.20;;
22904;SDS011;11619;50.140;8.518;2024-02-26T01:41:07;1.42;;;1.33;;
22904;SDS011;11619;50.140;8.518;2024-02-26T01:43:33;2.50;;;1.80;;
22904;SDS011;11619;50.140;8.518;2024-02-26T01:46:00;1.45;;;1.35;;
22904;SDS011;11619;50.140;8.518;2024-02-26T01:48:26;1.48;;;1.38;;
22904;SDS011;11619;50.140;8.518;2024-02-26T01:50:54;1.60;;;1.50;;
22904;SDS011;11619;50.140;8.518;2024-02-26T01:53:20;1.60;;;1.33;;
22904;SDS011;11619;50.140;8.518;2024-02-26T01:55:47;1.40;;;1.30;;
22904;SDS011;11619;50.140;8.518;2024-02-26T01:58:13;2.75;;;1.58;;
22904;SDS011;11619;50.140;8.518;2024-02-26T02:00:40;1.90;;;1.60;;
22904;SDS011;11619;50.140;8.518;2024-02-26T02:03:07;2.03;;;1.45;;
22904;SDS011;11619;50.140;8.518;2024-02-26T02:05:33;1.48;;;1.38;;
22904;SDS011;11619;50.140;8.518;2024-02-26T02:08:00;1.50;;;1.40;;
22904;SDS011;11619;50.140;8.518;2024-02-26T02:10:30;2.88;;;1.95;;
22904;SDS011;11619;50.140;8.518;2024-02-26T02:12:56;1.55;;;1.45;;
22904;SDS011;11619;50.140;8.518;2024-02-26T02:15:23;3.03;;;1.92;;
22904;SDS011;11619;50.140;8.518;2024-02-26T02:17:49;2.55;;;1.52;;
22904;SDS011;11619;50.140;8.518;2024-02-26T02:20:16;1.90;;;1.80;;
22904;SDS011;11619;50.140;8.518;2024-02-26T02:22:45;2.70;;;1.70;;
22904;SDS011;11619;50.140;8.518;2024-02-26T02:25:12;2.85;;;1.80;;
22904;SDS011;11619;50.140;8.518;2024-02-26T02:27:39;2.25;;;1.67;;
22904;SDS011;11619;50.140;8.518;2024-02-26T02:30:07;2.50;;;1.65;;
22904;SDS011;11619;50.140;8.518;2024-02-26T02:32:34;2.28;;;1.80;;
22904;SDS011;11619;50.140;8.518;2024-02-26T02:35:01;1.85;;;1.60;;
22904;SDS011;11619;50.140;8.518;2024-02-26T02:37:28;2.45;;;1.85;;
22904;SDS011;11619;50.140;8.518;2024-02-26T02:39:55;3.88;;;1.73;;
22904;SDS011;11619;50.140;8.518;2024-02-26T02:42:23;2.53;;;1.70;;
22904;SDS011;11619;50.140;8.518;2024-02-26T02:44:50;2.42;;;2.05;;
22904;SDS011;11619;50.140;8.518;2024-02-26T02:47:17;2.85;;;1.75;;
22904;SDS011;11619;50.140;8.518;2024-02-26T02:49:43;2.85;;;1.90;;
22904;SDS011;11619;50.140;8.518;2024-02-26T02:52:10;2.13;;;1.95;;
22904;SDS011;11619;50.140;8.518;2024-02-26T02:54:36;3.17;;;1.90;;
22904;SDS011;11619;50.140;8.518;2024-02-26T02:57:06;2.45;;;2.08;;
22904;SDS011;11619;50.140;8.518;2024-02-26T02:59:32;1.90;;;1.70;;
22904;SDS011;11619;50.140;8.518;2024-02-26T03:01:59;2.30;;;1.83;;
22904;SDS011;11619;50.140;8.518;2024-02-26T03:04:25;2.00;;;1.80;;
22904;SDS011;11619;50.140;8.518;2024-02-26T03:06:52;2.63;;;2.05;;
22904;SDS011;11619;50.140;8.518;2024-02-26T03:09:19;2.17;;;1.60;;
22904;SDS011;11619;50.140;8.518;2024-02-26T03:11:45;3.83;;;2.00;;
22904;SDS011;11619;50.140;8.518;2024-02-26T03:14:12;2.30;;;1.80;;
22904;SDS011;11619;50.140;8.518;2024-02-26T03:16:39;2.97;;;2.00;;
22904;SDS011;11619;50.140;8.518;2024-02-26T03:19:06;2.38;;;2.17;;
22904;SDS011;11619;50.140;8.518;2024-02-26T03:21:32;3.13;;;2.30;;
22904;SDS011;11619;50.140;8.518;2024-02-26T03:23:59;2.67;;;1.80;;
22904;SDS011;11619;50.140;8.518;2024-02-26T03:26:25;3.65;;;2.50;;
22904;SDS011;11619;50.140;8.518;2024-02-26T03:28:52;2.92;;;2.13;;
22904;SDS011;11619;50.140;8.518;2024-02-26T03:31:18;2.38;;;2.17;;
22904;SDS011;11619;50.140;8.518;2024-02-26T03:33:45;2.03;;;1.75;;
22904;SDS011;11619;50.140;8.518;2024-02-26T03:36:12;3.80;;;2.00;;
22904;SDS011;11619;50.140;8.518;2024-02-26T03:38:39;3.95;;;2.30;;
22904;SDS011;11619;50.140;8.518;2024-02-26T03:41:06;2.45;;;2.25;;
22904;SDS011;11619;50.140;8.518;2024-02-26T03:43:34;2.33;;;2.13;;
22904;SDS011;11619;50.140;8.518;2024-02-26T03:46:01;2.55;;;1.77;;
22904;SDS011;11619;50.140;8.518;2024-02-26T03:48:28;1.90;;;1.52;;
22904;SDS011;11619;50.140;8.518;2024-02-26T03:50:54;2.58;;;2.00;;
22904;SDS011;11619;50.140;8.518;2024-02-26T03:53:21;3.67;;;1.98;;
22904;SDS011;11619;50.140;8.518;2024-02-26T03:55:47;2.00;;;1.80;;
22904;SDS011;11619;50.140;8.518;2024-02-26T03:58:15;2.33;;;1.95;;
22904;SDS011;11619;50.140;8.518;2024-02-26T04:00:42;2.60;;;2.10;;
22904;SDS011;11619;50.140;8.518;2024-02-26T04:03:09;2.22;;;2.00;;
22904;SDS011;11619;50.140;8.518;2024-02-26T04:05:35;8.20;;;2.35;;
22904;SDS011;11619;50.140;8.518;2024-02-26T04:08:02;3.05;;;2.10;;
22904;SDS011;11619;50.140;8.518;2024-02-26T04:10:30;2.28;;;2.08;;
22904;SDS011;11619;50.140;8.518;2024-02-26T04:12:57;3.20;;;2.08;;
22904;SDS011;11619;50.140;8.518;2024-02-26T04:15:23;2.33;;;2.10;;
22904;SDS011;11619;50.140;8.518;2024-02-26T04:17:49;2.03;;;1.83;;
22904;SDS011;11619;50.140;8.518;2024-02-26T04:20:16;2.47;;;1.80;;
22904;SDS011;11619;50.140;8.518;2024-02-26T04:22:43;2.22;;;1.80;;
22904;SDS011;11619;50.140;8.518;2024-02-26T04:25:10;2.58;;;2.10;;
22904;SDS011;11619;50.140;8.518;2024-02-26T04:27:36;2.38;;;2.17;;
22904;SDS011;11619;50.140;8.518;2024-02-26T04:30:03;2.58;;;2.17;;
22904;SDS011;11619;50.140;8.518;2024-02-26T04:32:30;3.03;;;1.70;;
22904;SDS011;11619;50.140;8.518;2024-02-26T04:34:57;2.00;;;1.70;;
22904;SDS011;11619;50.140;8.518;2024-02-26T04:37:23;2.17;;;1.98;;
22904;SDS011;11619;50.140;8.518;2024-02-26T04:39:50;3.35;;;2.30;;
22904;SDS011;11619;50.140;8.518;2024-02-26T04:42:16;4.40;;;2.13;;
22904;SDS011;11619;50.140;8.518;2024-02-26T04:44:43;4.35;;;2.40;;
22904;SDS011;11619;50.140;8.518;2024-02-26T04:47:09;2.30;;;2.05;;
22904;SDS011;11619;50.140;8.518;2024-02-26T04:49:36;2.17;;;1.98;;
22904;SDS011;11619;50.140;8.518;2024-02-26T04:52:03;4.20;;;2.40;;
22904;SDS011;11619;50.140;8.518;2024-02-26T04:54:30;2.88;;;2.60;;
22904;SDS011;11619;50.140;8.518;2024-02-26T04:56:56;2.72;;;2.35;;
22904;SDS011;11619;50.140;8.518;2024-02-26T04:59:22;2.83;;;2.30;;
22904;SDS011;11619;50.140;8.518;2024-02-26T05:01:49;4.63;;;2.80;;
22904;SDS011;11619;50.140;8.518;2024-02-26T05:04:17;4.32;;;3.10;;
22904;SDS011;11619;50.140;8.518;2024-02-26T05:06:44;3.63;;;2.70;;
22904;SDS011;11619;50.140;8.518;2024-02-26T05:09:11;3.50;;;2.80;;
22904;SDS011;11619;50.140;8.518;2024-02-26T05:11:38;3.03;;;2.50;;
22904;SDS011;11619;50.140;8.518;2024-02-26T05:14:08;3.50;;;2.65;;
22904;SDS011;11619;50.140;8.518;2024-02-26T05:16:35;3.88;;;2.35;;
22904;SDS011;11619;50.140;8.518;2024-02-26T05:19:01;4.25;;;2.80;;
22904;SDS011;11619;50.140;8.518;2024-02-26T05:21:29;2.45;;;2.20;;
22904;SDS011;11619;50.140;8.518;2024-02-26T05:23:55;5.07;;;3.10;;
22904;SDS011;11619;50.140;8.518;2024-02-26T05:26:22;4.57;;;3.58;;
22904;SDS011;11619;50.140;8.518;2024-02-26T05:28:49;3.58;;;3.10;;
22904;SDS011;11619;50.140;8.518;2024-02-26T05:31:16;5.47;;;3.63;;
22904;SDS011;11619;50.140;8.518;2024-02-26T05:33:42;5.65;;;3.17;;
22904;SDS011;11619;50.140;8.518;2024-02-26T05:36:09;4.30;;;3.33;;
22904;SDS011;11619;50.140;8.518;2024-02-26T05:38:35;4.22;;;3.10;;
22904;SDS011;11619;50.140;8.518;2024-02-26T05:41:02;5.20;;;3.40;;
22904;SDS011;11619;50.140;8.518;2024-02-26T05:43:30;3.55;;;3.25;;
22904;SDS011;11619;50.140;8.518;2024-02-26T05:45:57;3.58;;;2.80;;
22904;SDS011;11619;50.140;8.518;2024-02-26T05:48:23;4.55;;;3.47;;
22904;SDS011;11619;50.140;8.518;2024-02-26T05:50:50;5.32;;;3.45;;
22904;SDS011;11619;50.140;8.518;2024-02-26T05:53:16;5.05;;;3.17;;
22904;SDS011;11619;50.140;8.518;2024-02-26T05:55:43;4.97;;;3.65;;
22904;SDS011;11619;50.140;8.518;2024-02-26T05:58:09;3.90;;;3.50;;
22904;SDS011;11619;50.140;8.518;2024-02-26T06:00:36;4.75;;;3.65;;
22904;SDS011;11619;50.140;8.518;2024-02-26T06:03:02;3.88;;;3.45;;
22904;SDS011;11619;50.140;8.518;2024-02-26T06:05:29;4.85;;;3.50;;
22904;SDS011;11619;50.140;8.518;2024-02-26T06:07:55;4.55;;;3.55;;
22904;SDS011;11619;50.140;8.518;2024-02-26T06:10:22;4.65;;;3.80;;
22904;SDS011;11619;50.140;8.518;2024-02-26T06:12:48;3.92;;;3.47;;
22904;SDS011;11619;50.140;8.518;2024-02-26T06:15:15;8.32;;;4.35;;
22904;SDS011;11619;50.140;8.518;2024-02-26T06:17:41;5.22;;;3.97;;
22904;SDS011;11619;50.140;8.518;2024-02-26T06:20:08;5.20;;;3.85;;
22904;SDS011;11619;50.140;8.518;2024-02-26T06:22:41;5.75;;;4.63;;
22904;SDS011;11619;50.140;8.518;2024-02-26T06:25:08;5.63;;;4.07;;
22904;SDS011;11619;50.140;8.518;2024-02-26T06:27:34;10.10;;;4.78;;
22904;SDS011;11619;50.140;8.518;2024-02-26T06:30:02;5.05;;;3.90;;
22904;SDS011;11619;50.140;8.518;2024-02-26T06:32:29;6.05;;;4.45;;
22904;SDS011;11619;50.140;8.518;2024-02-26T06:34:55;10.40;;;4.30;;
22904;SDS011;11619;50.140;8.518;2024-02-26T06:37:23;6.40;;;4.43;;
22904;SDS011;11619;50.140;8.518;2024-02-26T06:39:49;6.95;;;4.35;;
22904;SDS011;11619;50.140;8.518;2024-02-26T06:42:18;5.63;;;4.53;;
22904;SDS011;11619;50.140;8.518;2024-02-26T06:44:44;8.00;;;4.85;;
22904;SDS011;11619;50.140;8.518;2024-02-26T06:47:11;7.50;;;4.30;;
22904;SDS011;11619;50.140;8.518;2024-02-26T06:49:37;9.38;;;5.07;;
22904;SDS011;11619;50.140;8.518;2024-02-26T06:52:04;7.13;;;4.60;;
22904;SDS011;11619;50.140;8.518;2024-02-26T06:54:32;6.68;;;4.75;;
22904;SDS011;11619;50.140;8.518;2024-02-26T06:56:58;7.28;;;4.45;;
22904;SDS011;11619;50.140;8.518;2024-02-26T06:59:25;7.53;;;4.72;;
22904;SDS011;11619;50.140;8.518;2024-02-26T07:01:52;5.32;;;4.80;;
22904;SDS011;11619;50.140;8.518;2024-02-26T07:04:20;8.45;;;5.03;;
22904;SDS011;11619;50.140;8.518;2024-02-26T07:06:47;6.70;;;5.00;;
22904;SDS011;11619;50.140;8.518;2024-02-26T07:09:14;5.55;;;4.63;;
22904;SDS011;11619;50.140;8.518;2024-02-26T07:11:41;8.18;;;4.78;;
22904;SDS011;11619;50.140;8.518;2024-02-26T07:14:09;7.45;;;5.20;;
22904;SDS011;11619;50.140;8.518;2024-02-26T07:16:36;8.65;;;4.75;;
22904;SDS011;11619;50.140;8.518;2024-02-26T07:19:03;6.65;;;4.72;;
22904;SDS011;11619;50.140;8.518;2024-02-26T07:21:30;7.53;;;5.20;;
22904;SDS011;11619;50.140;8.518;2024-02-26T07:23:57;7.13;;;4.63;;
22904;SDS011;11619;50.140;8.518;2024-02-26T07:26:24;7.85;;;5.38;;
22904;SDS011;11619;50.140;8.518;2024-02-26T07:28:52;6.53;;;5.05;;
22904;SDS011;11619;50.140;8.518;2024-02-26T07:31:18;6.45;;;5.20;;
22904;SDS011;11619;50.140;8.518;2024-02-26T07:33:45;5.05;;;4.55;;
22904;SDS011;11619;50.140;8.518;2024-02-26T07:36:11;7.93;;;4.85;;
22904;SDS011;11619;50.140;8.518;2024-02-26T07:38:38;5.90;;;4.47;;
22904;SDS011;11619;50.140;8.518;2024-02-26T07:41:09;6.93;;;4.78;;
22904;SDS011;11619;50.140;8.518;2024-02-26T07:43:35;7.55;;;4.70;;
22904;SDS011;11619;50.140;8.518;2024-02-26T07:46:02;5.15;;;4.43;;
22904;SDS011;11619;50.140;8.518;2024-02-26T07:48:28;7.35;;;4.43;;
22904;SDS011;11619;50.140;8.518;2024-02-26T07:50:55;5.63;;;4.38;;
22904;SDS011;11619;50.140;8.518;2024-02-26T07:53:22;9.40;;;4.85;;
22904;SDS011;11619;50.140;8.518;2024-02-26T07:55:49;7.22;;;4.60;;
22904;SDS011;11619;50.140;8.518;2024-02-26T07:58:15;7.88;;;4.97;;
22904;SDS011;11619;50.140;8.518;2024-02-26T08:00:45;5.65;;;4.32;;
22904;SDS011;11619;50.140;8.518;2024-02-26T08:03:12;4.97;;;4.47;;
22904;SDS011;11619;50.140;8.518;2024-02-26T08:05:42;8.25;;;4.40;;
22904;SDS011;11619;50.140;8.518;2024-02-26T08:08:09;5.97;;;4.68;;
22904;SDS011;11619;50.140;8.518;2024-02-26T08:10:35;7.00;;;4.30;;
22904;SDS011;11619;50.140;8.518;2024-02-26T08:13:02;6.38;;;4.68;;
22904;SDS011;11619;50.140;8.518;2024-02-26T08:15:32;7.00;;;4.97;;
22904;SDS011;11619;50.140;8.518;2024-02-26T08:18:01;4.50;;;4.10;;
22904;SDS011;11619;50.140;8.518;2024-02-26T08:20:31;6.22;;;4.75;;
22904;SDS011;11619;50.140;8.518;2024-02-26T08:22:58;6.20;;;4.38;;
22904;SDS011;11619;50.140;8.518;2024-02-26T08:25:25;7.50;;;4.70;;
22904;SDS011;11619;50.140;8.518;2024-02-26T08:27:52;4.63;;;4.00;;
22904;SDS011;11619;50.140;8.518;2024-02-26T08:30:18;5.82;;;4.53;;
22904;SDS011;11619;50.140;8.518;2024-02-26T08:32:45;5.75;;;4.78;;
22904;SDS011;11619;50.140;8.518;2024-02-26T08:35:17;5.22;;;4.63;;
22904;SDS011;11619;50.140;8.518;2024-02-26T08:37:44;5.97;;;4.05;;
22904;SDS011;11619;50.140;8.518;2024-02-26T08:40:12;6.78;;;4.85;;
22904;SDS011;11619;50.140;8.518;2024-02-26T08:42:38;6.88;;;4.68;;
22904;SDS011;11619;50.140;8.518;2024-02-26T08:45:05;5.75;;;5.05;;
22904;SDS011;11619;50.140;8.518;2024-02-26T08:47:33;6.68;;;4.90;;
22904;SDS011;11619;50.140;8.518;2024-02-26T08:49:59;5.88;;;4.13;;
22904;SDS011;11619;50.140;8.518;2024-02-26T08:52:26;6.65;;;5.13;;
22904;SDS011;11619;50.140;8.518;2024-02-26T08:54:52;6.32;;;4.88;;
22904;SDS011;11619;50.140;8.518;2024-02-26T08:57:18;8.18;;;5.45;;
22904;SDS011;11619;50.140;8.518;2024-02-26T08:59:45;7.05;;;5.20;;
22904;SDS011;11619;50.140;8.518;2024-02-26T09:02:11;7.30;;;5.22;;
22904;SDS011;11619;50.140;8.518;2024-02-26T09:04:38;9.10;;;5.60;;
22904;SDS011;11619;50.140;8.518;2024-02-26T09:07:05;5.90;;;5.30;;
22904;SDS011;11619;50.140;8.518;2024-02-26T09:09:32;8.30;;;5.50;;
22904;SDS011;11619;50.140;8.518;2024-02-26T09:12:01;7.55;;;5.30;;
22904;SDS011;11619;50.140;8.518;2024-02-26T09:14:28;6.78;;;4.90;;
22904;SDS011;11619;50.140;8.518;2024-02-26T09:16:54;6.57;;;4.82;;
22904;SDS011;11619;50.140;8.518;2024-02-26T09:19:21;6.30;;;5.35;;
22904;SDS011;11619;50.140;8.518;2024-02-26T09:21:48;5.80;;;5.00;;
22904;SDS011;11619;50.140;8.518;2024-02-26T09:24:14;8.35;;;5.85;;
22904;SDS011;11619;50.140;8.518;2024-02-26T09:26:41;7.88;;;5.95;;
22904;SDS011;11619;50.140;8.518;2024-02-26T09:29:07;6.85;;;5.50;;
22904;SDS011;11619;50.140;8.518;2024-02-26T09:31:34;7.93;;;6.45;;
22904;SDS011;11619;50.140;8.518;2024-02-26T09:34:01;6.65;;;5.50;;
22904;SDS011;11619;50.140;8.518;2024-02-26T09:36:28;9.73;;;5.70;;
22904;SDS011;11619;50.140;8.518;2024-02-26T09:38:55;8.98;;;6.07;;
22904;SDS011;11619;50.140;8.518;2024-02-26T09:41:30;10.85;;;6.80;;
22904;SDS011;11619;50.140;8.518;2024-02-26T09:43:57;8.18;;;5.60;;
22904;SDS011;11619;50.140;8.518;2024-02-26T09:46:25;8.57;;;5.63;;
22904;SDS011;11619;50.140;8.518;2024-02-26T09:48:51;7.68;;;5.95;;
22904;SDS011;11619;50.140;8.518;2024-02-26T09:51:19;7.97;;;5.40;;
22904;SDS011;11619;50.140;8.518;2024-02-26T09:53:46;8.88;;;6.30;;
22904;SDS011;11619;50.140;8.518;2024-02-26T09:56:13;14.00;;;6.47;;
22904;SDS011;11619;50.140;8.518;2024-02-26T09:58:41;10.30;;;6.60;;
22904;SDS011;11619;50.140;8.518;2024-02-26T10:01:10;7.30;;;5.70;;
22904;SDS011;11619;50.140;8.518;2024-02-26T10:03:42;7.63;;;6.22;;
22904;SDS011;11619;50.140;8.518;2024-02-26T10:06:11;8.43;;;6.35;;
22904;SDS011;11619;50.140;8.518;2024-02-26T10:08:37;9.02;;;5.72;;
22904;SDS011;11619;50.140;8.518;2024-02-26T10:11:05;6.13;;;5.25;;
22904;SDS011;11619;50.140;8.518;2024-02-26T10:13:34;9.93;;;7.30;;
22904;SDS011;11619;50.140;8.518;2024-02-26T10:16:00;9.43;;;6.25;;
22904;SDS011;11619;50.140;8.518;2024-02-26T10:21:24;9.35;;;5.68;;
22904;SDS011;11619;50.140;8.518;2024-02-26T10:23:51;8.25;;;6.22;;
22904;SDS011;11619;50.140;8.518;2024-02-26T10:26:18;9.15;;;6.25;;
22904;SDS011;11619;50.140;8.518;2024-02-26T10:28:45;9.02;;;5.72;;
22904;SDS011;11619;50.140;8.518;2024-02-26T10:31:14;7.15;;;5.70;;
22904;SDS011;11619;50.140;8.518;2024-02-26T10:33:41;9.13;;;6.28;;
22904;SDS011;11619;50.140;8.518;2024-02-26T10:36:09;8.68;;;6.25;;
22904;SDS011;11619;50.140;8.518;2024-02-26T10:38:37;6.35;;;5.32;;
22904;SDS011;11619;50.140;8.518;2024-02-26T10:41:12;10.02;;;6.38;;
22904;SDS011;11619;50.140;8.518;2024-02-26T10:43:41;7.85;;;5.70;;
22904;SDS011;11619;50.140;8.518;2024-02-26T10:46:09;6.95;;;5.32;;
22904;SDS011;11619;50.140;8.518;2024-02-26T10:48:36;8.50;;;5.78;;
22904;SDS011;11619;50.140;8.518;2024-02-26T10:51:03;7.57;;;5.55;;
22904;SDS011;11619;50.140;8.518;2024-02-26T10:53:30;8.68;;;5.18;;
22904;SDS011;11619;50.140;8.518;2024-02-26T10:55:59;6.85;;;5.38;;
22904;SDS011;11619;50.140;8.518;2024-02-26T10:58:28;7.05;;;5.32;;
22904;SDS011;11619;50.140;8.518;2024-02-26T11:00:55;8.98;;;5.53;;
22904;SDS011;11619;50.140;8.518;2024-02-26T11:03:24;6.22;;;4.90;;
22904;SDS011;11619;50.140;8.518;2024-02-26T11:05:51;6.57;;;5.75;;
22904;SDS011;11619;50.140;8.518;2024-02-26T11:08:18;7.53;;;5.80;;
22904;SDS011;11619;50.140;8.518;2024-02-26T11:10:48;5.80;;;5.20;;
22904;SDS011;11619;50.140;8.518;2024-02-26T11:13:17;7.75;;;5.82;;
22904;SDS011;11619;50.140;8.518;2024-02-26T11:15:46;7.32;;;5.63;;
22904;SDS011;11619;50.140;8.518;2024-02-26T11:18:16;7.85;;;5.93;;
22904;SDS011;11619;50.140;8.518;2024-02-26T11:20:47;7.85;;;5.82;;
22904;SDS011;11619;50.140;8.518;2024-02-26T11:23:14;7.03;;;5.70;;
22904;SDS011;11619;50.140;8.518;2024-02-26T11:25:41;8.80;;;6.75;;
22904;SDS011;11619;50.140;8.518;2024-02-26T11:28:12;15.45;;;11.93;;
22904;SDS011;11619;50.140;8.518;2024-02-26T11:30:42;28.20;;;20.48;;
22904;SDS011;11619;50.140;8.518;2024-02-26T11:33:10;18.58;;;14.73;;
22904;SDS011;11619;50.140;8.518;2024-02-26T11:35:39;13.75;;;9.73;;
22904;SDS011;11619;50.140;8.518;2024-02-26T11:38:06;43.75;;;24.10;;
22904;SDS011;11619;50.140;8.518;2024-02-26T11:40:37;15.70;;;10.85;;
22904;SDS011;11619;50.140;8.518;2024-02-26T11:43:06;24.40;;;16.15;;
22904;SDS011;11619;50.140;8.518;2024-02-26T11:48:12;42.15;;;25.15;;
22904;SDS011;11619;50.140;8.518;2024-02-26T11:50:41;21.30;;;14.07;;
22904;SDS011;11619;50.140;8.518;2024-02-26T11:53:27;21.58;;;14.30;;
22904;SDS011;11619;50.140;8.518;2024-02-26T11:58:59;10.90;;;6.43;;
22904;SDS011;11619;50.140;8.518;2024-02-26T12:01:37;17.23;;;13.07;;
22904;SDS011;11619;50.140;8.518;2024-02-26T12:04:27;14.65;;;9.90;;
22904;SDS011;11619;50.140;8.518;2024-02-26T12:06:56;5.75;;;5.15;;
22904;SDS011;11619;50.140;8.518;2024-02-26T12:09:40;7.93;;;6.55;;
22904;SDS011;11619;50.140;8.518;2024-02-26T12:12:08;6.45;;;5.35;;
22904;SDS011;11619;50.140;8.518;2024-02-26T12:14:39;8.05;;;5.63;;
22904;SDS011;11619;50.140;8.518;2024-02-26T12:17:07;8.77;;;5.10;;
22904;SDS011;11619;50.140;8.518;2024-02-26T12:19:35;6.70;;;5.55;;
22904;SDS011;11619;50.140;8.518;2024-02-26T12:22:09;5.68;;;4.80;;
22904;SDS011;11619;50.140;8.518;2024-02-26T12:24:39;6.25;;;4.93;;
22904;SDS011;11619;50.140;8.518;2024-02-26T12:27:05;5.53;;;4.65;;
22904;SDS011;11619;50.140;8.518;2024-02-26T12:29:32;6.72;;;4.90;;
22904;SDS011;11619;50.140;8.518;2024-02-26T12:31:59;6.95;;;5.10;;
22904;SDS011;11619;50.140;8.518;2024-02-26T12:34:25;6.68;;;5.25;;
22904;SDS011;11619;50.140;8.518;2024-02-26T12:36:53;5.15;;;4.65;;
22904;SDS011;11619;50.140;8.518;2024-02-26T12:39:20;7.57;;;5.30;;
22904;SDS011;11619;50.140;8.518;2024-02-26T12:41:47;5.75;;;4.88;;
22904;SDS011;11619;50.140;8.518;2024-02-26T12:44:17;5.22;;;4.55;;
22904;SDS011;11619;50.140;8.518;2024-02-26T12:46:43;6.53;;;4.95;;
22904;SDS011;11619;50.140;8.518;2024-02-26T12:49:14;6.55;;;4.90;;
22904;SDS011;11619;50.140;8.518;2024-02-26T12:51:43;9.10;;;5.32;;
22904;SDS011;11619;50.140;8.518;2024-02-26T12:54:10;5.85;;;4.75;;
22904;SDS011;11619;50.140;8.518;2024-02-26T12:56:37;5.50;;;4.90;;
22904;SDS011;11619;50.140;8.518;2024-02-26T12:59:04;6.35;;;4.85;;
22904;SDS011;11619;50.140;8.518;2024-02-26T13:01:30;7.00;;;4.63;;
22904;SDS011;11619;50.140;8.518;2024-02-26T13:03:57;6.50;;;5.10;;
22904;SDS011;11619;50.140;8.518;2024-02-26T13:06:24;5.85;;;5.10;;
22904;SDS011;11619;50.140;8.518;2024-02-26T13:08:56;5.25;;;4.75;;
22904;SDS011;11619;50.140;8.518;2024-02-26T13:11:24;6.38;;;5.40;;
22904;SDS011;11619;50.140;8.518;2024-02-26T13:13:51;5.15;;;4.38;;
22904;SDS011;11619;50.140;8.518;2024-02-26T13:16:17;7.15;;;4.57;;
22904;SDS011;11619;50.140;8.518;2024-02-26T13:18:44;5.22;;;4.60;;
22904;SDS011;11619;50.140;8.518;2024-02-26T13:21:14;6.65;;;4.68;;
22904;SDS011;11619;50.140;8.518;2024-02-26T13:23:43;4.72;;;4.07;;
22904;SDS011;11619;50.140;8.518;2024-02-26T13:26:12;8.43;;;4.90;;
22904;SDS011;11619;50.140;8.518;2024-02-26T13:28:41;5.63;;;4.70;;
22904;SDS011;11619;50.140;8.518;2024-02-26T13:31:08;5.32;;;4.55;;
22904;SDS011;11619;50.140;8.518;2024-02-26T13:33:34;4.57;;;4.05;;
22904;SDS011;11619;50.140;8.518;2024-02-26T13:36:02;5.93;;;4.63;;
22904;SDS011;11619;50.140;8.518;2024-02-26T13:38:29;5.22;;;4.28;;
22904;SDS011;11619;50.140;8.518;2024-02-26T13:40:55;7.50;;;5.13;;
22904;SDS011;11619;50.140;8.518;2024-02-26T13:43:23;8.40;;;5.80;;
22904;SDS011;11619;50.140;8.518;2024-02-26T13:45:50;4.90;;;4.40;;
22904;SDS011;11619;50.140;8.518;2024-02-26T13:48:17;8.05;;;4.35;;
22904;SDS011;11619;50.140;8.518;2024-02-26T13:50:43;6.28;;;4.47;;
22904;SDS011;11619;50.140;8.518;2024-02-26T13:53:12;4.85;;;4.35;;
22904;SDS011;11619;50.140;8.518;2024-02-26T13:55:39;6.32;;;4.15;;
22904;SDS011;11619;50.140;8.518;2024-02-26T13:58:08;5.50;;;3.72;;
22904;SDS011;11619;50.140;8.518;2024-02-26T14:00:38;5.43;;;4.47;;
22904;SDS011;11619;50.140;8.518;2024-02-26T14:03:05;5.55;;;4.43;;
22904;SDS011;11619;50.140;8.518;2024-02-26T14:05:31;5.43;;;4.53;;
22904;SDS011;11619;50.140;8.518;2024-02-26T14:07:58;6.60;;;4.60;;
22904;SDS011;11619;50.140;8.518;2024-02-26T14:10:24;5.55;;;4.38;;
22904;SDS011;11619;50.140;8.518;2024-02-26T14:12:52;5.05;;;4.53;;
22904;SDS011;11619;50.140;8.518;2024-02-26T14:15:18;7.82;;;5.10;;
22904;SDS011;11619;50.140;8.518;2024-02-26T14:17:45;6.03;;;5.43;;
22904;SDS011;11619;50.140;8.518;2024-02-26T14:20:12;6.65;;;4.90;;
22904;SDS011;11619;50.140;8.518;2024-02-26T14:22:39;6.22;;;5.13;;
22904;SDS011;11619;50.140;8.518;2024-02-26T14:25:05;6.68;;;5.10;;
22904;SDS011;11619;50.140;8.518;2024-02-26T14:27:32;6.25;;;4.53;;
22904;SDS011;11619;50.140;8.518;2024-02-26T14:29:59;5.03;;;4.32;;
22904;SDS011;11619;50.140;8.518;2024-02-26T14:32:25;6.88;;;4.65;;
22904;SDS011;11619;50.140;8.518;2024-02-26T14:34:52;5.63;;;5.13;;
22904;SDS011;11619;50.140;8.518;2024-02-26T14:37:19;4.85;;;4.35;;
22904;SDS011;11619;50.140;8.518;2024-02-26T14:39:45;4.85;;;4.32;;
22904;SDS011;11619;50.140;8.518;2024-02-26T14:42:13;7.35;;;4.95;;
22904;SDS011;11619;50.140;8.518;2024-02-26T14:44:43;5.22;;;4.72;;
22904;SDS011;11619;50.140;8.518;2024-02-26T14:47:10;7.63;;;5.20;;
22904;SDS011;11619;50.140;8.518;2024-02-26T14:49:36;6.13;;;4.75;;
22904;SDS011;11619;50.140;8.518;2024-02-26T14:52:03;4.72;;;4.20;;
22904;SDS011;11619;50.140;8.518;2024-02-26T14:54:30;5.60;;;4.32;;